sensor_id;sensor_type;location;lat;lon;timestamp;P1;durP1;ratioP1;P2;durP2;ratioP2
52838;SDS011;39219;53.678;9.856;2023-08-20T00:01:41;16.13;;;8.23;;
52838;SDS011;39219;53.678;9.856;2023-08-20T00:04:08;14.43;;;8.25;;
52838;SDS011;39219;53.678;9.856;2023-08-20T00:06:34;19.48;;;7.93;;
52838;SDS011;39219;53.678;9.856;2023-08-20T00:09:01;18.25;;;8.35;;
52838;SDS011;39219;53.678;9.856;2023-08-20T00:11:28;16.33;;;8.45;;
52838;SDS011;39219;53.678;9.856;2023-08-20T00:13:56;17.88;;;8.52;;
52838;SDS011;39219;53.678;9.856;2023-08-20T00:16:22;17.55;;;8.65;;
52838;SDS011;39219;53.678;9.856;2023-08-20T00:18:50;14.68;;;7.30;;
52838;SDS011;39219;53.678;9.856;2023-08-20T00:21:17;13.80;;;7.70;;
52838;SDS011;39219;53.678;9.856;2023-08-20T00:23:43;18.88;;;7.47;;
52838;SDS011;39219;53.678;9.856;2023-08-20T00:26:10;15.48;;;8.27;;
52838;SDS011;39219;53.678;9.856;2023-08-20T00:28:37;11.35;;;6.15;;
52838;SDS011;39219;53.678;9.856;2023-08-20T00:31:03;17.77;;;8.95;;
52838;SDS011;39219;53.678;9.856;2023-08-20T00:33:30;21.10;;;8.48;;
52838;SDS011;39219;53.678;9.856;2023-08-20T00:35:58;17.88;;;8.68;;
52838;SDS011;39219;53.678;9.856;2023-08-20T00:38:24;20.17;;;7.82;;
52838;SDS011;39219;53.678;9.856;2023-08-20T00:40:50;13.30;;;7.10;;
52838;SDS011;39219;53.678;9.856;2023-08-20T00:43:17;17.02;;;7.68;;
52838;SDS011;39219;53.678;9.856;2023-08-20T00:45:43;13.23;;;7.13;;
52838;SDS011;39219;53.678;9.856;2023-08-20T00:48:10;13.35;;;6.78;;
52838;SDS011;39219;53.678;9.856;2023-08-20T00:50:37;12.60;;;6.45;;
52838;SDS011;39219;53.678;9.856;2023-08-20T00:53:05;11.48;;;6.88;;
52838;SDS011;39219;53.678;9.856;2023-08-20T00:55:32;13.93;;;7.07;;
52838;SDS011;39219;53.678;9.856;2023-08-20T00:57:58;11.35;;;6.72;;
52838;SDS011;39219;53.678;9.856;2023-08-20T01:00:25;12.85;;;6.25;;
52838;SDS011;39219;53.678;9.856;2023-08-20T01:02:52;12.10;;;6.50;;
52838;SDS011;39219;53.678;9.856;2023-08-20T01:05:18;9.82;;;5.28;;
52838;SDS011;39219;53.678;9.856;2023-08-20T01:07:50;9.35;;;5.30;;
52838;SDS011;39219;53.678;9.856;2023-08-20T01:10:22;9.33;;;5.40;;
52838;SDS011;39219;53.678;9.856;2023-08-20T01:12:51;11.77;;;6.47;;
52838;SDS011;39219;53.678;9.856;2023-08-20T01:15:17;17.52;;;7.40;;
52838;SDS011;39219;53.678;9.856;2023-08-20T01:17:44;17.95;;;6.43;;
52838;SDS011;39219;53.678;9.856;2023-08-20T01:20:11;12.73;;;7.03;;
52838;SDS011;39219;53.678;9.856;2023-08-20T01:22:51;11.73;;;6.82;;
52838;SDS011;39219;53.678;9.856;2023-08-20T01:25:28;13.68;;;8.45;;
52838;SDS011;39219;53.678;9.856;2023-08-20T01:27:58;12.13;;;7.70;;
52838;SDS011;39219;53.678;9.856;2023-08-20T01:30:27;12.25;;;7.40;;
52838;SDS011;39219;53.678;9.856;2023-08-20T01:32:53;13.10;;;7.07;;
52838;SDS011;39219;53.678;9.856;2023-08-20T01:35:20;14.40;;;7.25;;
52838;SDS011;39219;53.678;9.856;2023-08-20T01:37:50;14.93;;;8.15;;
52838;SDS011;39219;53.678;9.856;2023-08-20T01:40:16;14.90;;;8.00;;
52838;SDS011;39219;53.678;9.856;2023-08-20T01:42:42;13.88;;;7.80;;
52838;SDS011;39219;53.678;9.856;2023-08-20T01:45:09;15.73;;;8.30;;
52838;SDS011;39219;53.678;9.856;2023-08-20T01:47:37;13.75;;;7.63;;
52838;SDS011;39219;53.678;9.856;2023-08-20T01:50:03;18.75;;;8.40;;
52838;SDS011;39219;53.678;9.856;2023-08-20T01:52:30;14.60;;;7.53;;
52838;SDS011;39219;53.678;9.856;2023-08-20T01:54:57;9.25;;;5.70;;
52838;SDS011;39219;53.678;9.856;2023-08-20T01:57:23;11.60;;;6.88;;
52838;SDS011;39219;53.678;9.856;2023-08-20T01:59:50;13.77;;;6.38;;
52838;SDS011;39219;53.678;9.856;2023-08-20T02:02:16;9.43;;;6.20;;
52838;SDS011;39219;53.678;9.856;2023-08-20T02:04:43;9.23;;;5.40;;
52838;SDS011;39219;53.678;9.856;2023-08-20T02:07:10;9.00;;;5.68;;
52838;SDS011;39219;53.678;9.856;2023-08-20T02:09:36;9.48;;;5.82;;
52838;SDS011;39219;53.678;9.856;2023-08-20T02:12:03;10.02;;;6.22;;
52838;SDS011;39219;53.678;9.856;2023-08-20T02:14:29;10.35;;;6.60;;
52838;SDS011;39219;53.678;9.856;2023-08-20T02:16:59;10.45;;;6.70;;
52838;SDS011;39219;53.678;9.856;2023-08-20T02:19:25;10.02;;;6.88;;
52838;SDS011;39219;53.678;9.856;2023-08-20T02:21:53;12.88;;;7.07;;
52838;SDS011;39219;53.678;9.856;2023-08-20T02:24:20;12.10;;;7.00;;
52838;SDS011;39219;53.678;9.856;2023-08-20T02:26:46;12.40;;;7.47;;
52838;SDS011;39219;53.678;9.856;2023-08-20T02:29:12;11.77;;;7.10;;
52838;SDS011;39219;53.678;9.856;2023-08-20T02:31:38;9.32;;;6.28;;
52838;SDS011;39219;53.678;9.856;2023-08-20T02:34:05;11.77;;;6.85;;
52838;SDS011;39219;53.678;9.856;2023-08-20T02:36:31;11.70;;;6.97;;
52838;SDS011;39219;53.678;9.856;2023-08-20T02:38:59;11.88;;;7.25;;
52838;SDS011;39219;53.678;9.856;2023-08-20T02:41:25;10.65;;;7.30;;
52838;SDS011;39219;53.678;9.856;2023-08-20T02:43:51;10.60;;;5.68;;
52838;SDS011;39219;53.678;9.856;2023-08-20T02:46:17;12.18;;;6.68;;
52838;SDS011;39219;53.678;9.856;2023-08-20T02:48:44;11.88;;;6.75;;
52838;SDS011;39219;53.678;9.856;2023-08-20T02:51:10;10.38;;;6.50;;
52838;SDS011;39219;53.678;9.856;2023-08-20T02:53:36;13.02;;;7.75;;
52838;SDS011;39219;53.678;9.856;2023-08-20T02:56:04;13.40;;;6.90;;
52838;SDS011;39219;53.678;9.856;2023-08-20T02:58:30;13.65;;;8.73;;
52838;SDS011;39219;53.678;9.856;2023-08-20T03:00:56;16.85;;;8.43;;
52838;SDS011;39219;53.678;9.856;2023-08-20T03:03:23;16.52;;;8.82;;
52838;SDS011;39219;53.678;9.856;2023-08-20T03:05:49;17.23;;;9.55;;
52838;SDS011;39219;53.678;9.856;2023-08-20T03:08:15;16.83;;;8.85;;
52838;SDS011;39219;53.678;9.856;2023-08-20T03:10:42;13.27;;;7.68;;
52838;SDS011;39219;53.678;9.856;2023-08-20T03:13:09;13.43;;;7.35;;
52838;SDS011;39219;53.678;9.856;2023-08-20T03:15:36;12.05;;;7.43;;
52838;SDS011;39219;53.678;9.856;2023-08-20T03:18:03;11.13;;;7.55;;
52838;SDS011;39219;53.678;9.856;2023-08-20T03:20:29;12.18;;;7.72;;
52838;SDS011;39219;53.678;9.856;2023-08-20T03:22:56;10.70;;;7.35;;
52838;SDS011;39219;53.678;9.856;2023-08-20T03:25:23;11.40;;;7.85;;
52838;SDS011;39219;53.678;9.856;2023-08-20T03:27:49;10.60;;;7.53;;
52838;SDS011;39219;53.678;9.856;2023-08-20T03:30:17;14.65;;;8.30;;
52838;SDS011;39219;53.678;9.856;2023-08-20T03:32:44;11.93;;;7.68;;
52838;SDS011;39219;53.678;9.856;2023-08-20T03:35:10;12.40;;;7.85;;
52838;SDS011;39219;53.678;9.856;2023-08-20T03:37:36;11.52;;;7.50;;
52838;SDS011;39219;53.678;9.856;2023-08-20T03:40:03;10.02;;;6.47;;
52838;SDS011;39219;53.678;9.856;2023-08-20T03:42:30;10.63;;;7.03;;
52838;SDS011;39219;53.678;9.856;2023-08-20T03:44:56;12.27;;;7.72;;
52838;SDS011;39219;53.678;9.856;2023-08-20T03:47:24;12.15;;;7.70;;
52838;SDS011;39219;53.678;9.856;2023-08-20T03:49:50;12.07;;;8.20;;
52838;SDS011;39219;53.678;9.856;2023-08-20T03:52:16;11.15;;;7.82;;
52838;SDS011;39219;53.678;9.856;2023-08-20T03:54:43;10.52;;;7.30;;
52838;SDS011;39219;53.678;9.856;2023-08-20T03:57:09;10.68;;;7.63;;
52838;SDS011;39219;53.678;9.856;2023-08-20T03:59:35;11.52;;;7.70;;
52838;SDS011;39219;53.678;9.856;2023-08-20T04:02:02;13.55;;;7.70;;
52838;SDS011;39219;53.678;9.856;2023-08-20T04:04:29;10.25;;;6.80;;
52838;SDS011;39219;53.678;9.856;2023-08-20T04:06:56;10.50;;;7.25;;
52838;SDS011;39219;53.678;9.856;2023-08-20T04:09:23;10.02;;;6.95;;
52838;SDS011;39219;53.678;9.856;2023-08-20T04:11:49;11.38;;;7.43;;
52838;SDS011;39219;53.678;9.856;2023-08-20T04:14:15;10.68;;;7.55;;
52838;SDS011;39219;53.678;9.856;2023-08-20T04:16:41;10.13;;;7.28;;
52838;SDS011;39219;53.678;9.856;2023-08-20T04:19:08;11.73;;;7.68;;
52838;SDS011;39219;53.678;9.856;2023-08-20T04:21:35;11.40;;;7.13;;
52838;SDS011;39219;53.678;9.856;2023-08-20T04:24:02;11.48;;;7.40;;
52838;SDS011;39219;53.678;9.856;2023-08-20T04:26:28;11.07;;;7.35;;
52838;SDS011;39219;53.678;9.856;2023-08-20T04:28:54;10.82;;;7.25;;
52838;SDS011;39219;53.678;9.856;2023-08-20T04:31:21;10.38;;;7.15;;
52838;SDS011;39219;53.678;9.856;2023-08-20T04:33:47;14.27;;;7.53;;
52838;SDS011;39219;53.678;9.856;2023-08-20T04:36:13;11.80;;;7.22;;
52838;SDS011;39219;53.678;9.856;2023-08-20T04:38:41;9.70;;;6.80;;
52838;SDS011;39219;53.678;9.856;2023-08-20T04:41:07;9.60;;;6.75;;
52838;SDS011;39219;53.678;9.856;2023-08-20T04:43:33;9.30;;;6.80;;
52838;SDS011;39219;53.678;9.856;2023-08-20T04:46:00;8.55;;;6.10;;
52838;SDS011;39219;53.678;9.856;2023-08-20T04:48:26;8.93;;;6.32;;
52838;SDS011;39219;53.678;9.856;2023-08-20T04:50:52;9.48;;;6.35;;
52838;SDS011;39219;53.678;9.856;2023-08-20T04:53:18;9.13;;;6.78;;
52838;SDS011;39219;53.678;9.856;2023-08-20T04:55:46;8.60;;;6.32;;
52838;SDS011;39219;53.678;9.856;2023-08-20T04:58:12;9.20;;;6.60;;
52838;SDS011;39219;53.678;9.856;2023-08-20T05:00:39;7.60;;;5.55;;
52838;SDS011;39219;53.678;9.856;2023-08-20T05:03:05;10.65;;;6.75;;
52838;SDS011;39219;53.678;9.856;2023-08-20T05:05:31;9.25;;;5.75;;
52838;SDS011;39219;53.678;9.856;2023-08-20T05:07:57;7.93;;;5.85;;
52838;SDS011;39219;53.678;9.856;2023-08-20T05:10:24;8.27;;;5.97;;
52838;SDS011;39219;53.678;9.856;2023-08-20T05:12:51;12.27;;;6.72;;
52838;SDS011;39219;53.678;9.856;2023-08-20T05:15:18;11.23;;;6.28;;
52838;SDS011;39219;53.678;9.856;2023-08-20T05:17:44;18.13;;;6.50;;
52838;SDS011;39219;53.678;9.856;2023-08-20T05:20:10;8.77;;;6.00;;
52838;SDS011;39219;53.678;9.856;2023-08-20T05:22:37;18.45;;;6.30;;
52838;SDS011;39219;53.678;9.856;2023-08-20T05:25:03;20.27;;;6.22;;
52838;SDS011;39219;53.678;9.856;2023-08-20T05:27:30;14.10;;;6.18;;
52838;SDS011;39219;53.678;9.856;2023-08-20T05:29:57;8.48;;;6.07;;
52838;SDS011;39219;53.678;9.856;2023-08-20T05:32:23;15.20;;;6.35;;
52838;SDS011;39219;53.678;9.856;2023-08-20T05:34:50;10.32;;;6.28;;
52838;SDS011;39219;53.678;9.856;2023-08-20T05:37:17;9.50;;;6.40;;
52838;SDS011;39219;53.678;9.856;2023-08-20T05:39:43;9.00;;;6.32;;
52838;SDS011;39219;53.678;9.856;2023-08-20T05:42:10;9.93;;;6.25;;
52838;SDS011;39219;53.678;9.856;2023-08-20T05:44:36;12.77;;;6.13;;
52838;SDS011;39219;53.678;9.856;2023-08-20T05:47:04;11.73;;;6.35;;
52838;SDS011;39219;53.678;9.856;2023-08-20T05:49:31;8.40;;;5.68;;
52838;SDS011;39219;53.678;9.856;2023-08-20T05:51:57;17.05;;;6.68;;
52838;SDS011;39219;53.678;9.856;2023-08-20T05:54:24;13.00;;;6.65;;
52838;SDS011;39219;53.678;9.856;2023-08-20T05:56:50;9.38;;;6.70;;
52838;SDS011;39219;53.678;9.856;2023-08-20T05:59:16;9.15;;;6.70;;
52838;SDS011;39219;53.678;9.856;2023-08-20T06:01:43;18.70;;;6.63;;
52838;SDS011;39219;53.678;9.856;2023-08-20T06:04:10;10.10;;;6.97;;
52838;SDS011;39219;53.678;9.856;2023-08-20T06:06:37;10.35;;;6.53;;
52838;SDS011;39219;53.678;9.856;2023-08-20T06:09:03;9.20;;;6.40;;
52838;SDS011;39219;53.678;9.856;2023-08-20T06:11:29;11.60;;;6.88;;
52838;SDS011;39219;53.678;9.856;2023-08-20T06:13:55;13.88;;;6.85;;
52838;SDS011;39219;53.678;9.856;2023-08-20T06:16:22;14.70;;;7.72;;
52838;SDS011;39219;53.678;9.856;2023-08-20T06:18:48;11.38;;;7.32;;
52838;SDS011;39219;53.678;9.856;2023-08-20T06:21:16;11.82;;;7.72;;
52838;SDS011;39219;53.678;9.856;2023-08-20T06:23:42;11.27;;;7.57;;
52838;SDS011;39219;53.678;9.856;2023-08-20T06:26:08;12.02;;;7.53;;
52838;SDS011;39219;53.678;9.856;2023-08-20T06:28:35;12.30;;;7.40;;
52838;SDS011;39219;53.678;9.856;2023-08-20T06:31:01;12.38;;;8.13;;
52838;SDS011;39219;53.678;9.856;2023-08-20T06:33:27;12.23;;;8.18;;
52838;SDS011;39219;53.678;9.856;2023-08-20T06:35:53;14.15;;;8.52;;
52838;SDS011;39219;53.678;9.856;2023-08-20T06:38:21;13.82;;;7.82;;
52838;SDS011;39219;53.678;9.856;2023-08-20T06:40:47;13.23;;;8.32;;
52838;SDS011;39219;53.678;9.856;2023-08-20T06:43:14;13.15;;;8.40;;
52838;SDS011;39219;53.678;9.856;2023-08-20T06:45:40;13.27;;;9.05;;
52838;SDS011;39219;53.678;9.856;2023-08-20T06:48:06;14.82;;;9.32;;
52838;SDS011;39219;53.678;9.856;2023-08-20T06:50:32;15.82;;;9.23;;
52838;SDS011;39219;53.678;9.856;2023-08-20T06:52:59;17.98;;;9.20;;
52838;SDS011;39219;53.678;9.856;2023-08-20T06:55:26;13.50;;;9.25;;
52838;SDS011;39219;53.678;9.856;2023-08-20T06:57:53;14.02;;;9.25;;
52838;SDS011;39219;53.678;9.856;2023-08-20T07:00:19;14.65;;;9.18;;
52838;SDS011;39219;53.678;9.856;2023-08-20T07:02:46;13.73;;;8.55;;
52838;SDS011;39219;53.678;9.856;2023-08-20T07:05:12;13.50;;;8.75;;
52838;SDS011;39219;53.678;9.856;2023-08-20T07:07:40;14.70;;;9.20;;
52838;SDS011;39219;53.678;9.856;2023-08-20T07:10:06;13.38;;;8.75;;
52838;SDS011;39219;53.678;9.856;2023-08-20T07:12:34;13.25;;;8.75;;
52838;SDS011;39219;53.678;9.856;2023-08-20T07:15:00;15.25;;;9.35;;
52838;SDS011;39219;53.678;9.856;2023-08-20T07:17:27;15.75;;;10.25;;
52838;SDS011;39219;53.678;9.856;2023-08-20T07:19:53;17.10;;;10.70;;
52838;SDS011;39219;53.678;9.856;2023-08-20T07:22:19;18.75;;;11.07;;
52838;SDS011;39219;53.678;9.856;2023-08-20T07:24:46;17.13;;;10.10;;
52838;SDS011;39219;53.678;9.856;2023-08-20T07:27:12;16.05;;;9.88;;
52838;SDS011;39219;53.678;9.856;2023-08-20T07:29:40;16.98;;;9.35;;
52838;SDS011;39219;53.678;9.856;2023-08-20T07:32:07;15.48;;;9.35;;
52838;SDS011;39219;53.678;9.856;2023-08-20T07:34:33;15.93;;;9.45;;
52838;SDS011;39219;53.678;9.856;2023-08-20T07:36:59;14.48;;;7.78;;
52838;SDS011;39219;53.678;9.856;2023-08-20T07:39:26;12.75;;;7.25;;
52838;SDS011;39219;53.678;9.856;2023-08-20T07:41:52;13.65;;;8.05;;
52838;SDS011;39219;53.678;9.856;2023-08-20T07:44:19;11.63;;;7.15;;
52838;SDS011;39219;53.678;9.856;2023-08-20T07:46:46;11.30;;;6.43;;
52838;SDS011;39219;53.678;9.856;2023-08-20T07:49:13;9.95;;;5.55;;
52838;SDS011;39219;53.678;9.856;2023-08-20T07:51:39;10.45;;;6.47;;
52838;SDS011;39219;53.678;9.856;2023-08-20T07:54:05;12.25;;;7.22;;
52838;SDS011;39219;53.678;9.856;2023-08-20T07:56:31;12.65;;;7.22;;
52838;SDS011;39219;53.678;9.856;2023-08-20T07:58:58;13.27;;;6.85;;
52838;SDS011;39219;53.678;9.856;2023-08-20T08:01:24;14.20;;;7.55;;
52838;SDS011;39219;53.678;9.856;2023-08-20T08:03:52;11.43;;;6.03;;
52838;SDS011;39219;53.678;9.856;2023-08-20T08:06:18;14.02;;;6.53;;
52838;SDS011;39219;53.678;9.856;2023-08-20T08:08:46;11.88;;;5.85;;
52838;SDS011;39219;53.678;9.856;2023-08-20T08:11:13;11.82;;;5.82;;
52838;SDS011;39219;53.678;9.856;2023-08-20T08:13:39;12.02;;;6.10;;
52838;SDS011;39219;53.678;9.856;2023-08-20T08:16:06;10.88;;;5.18;;
52838;SDS011;39219;53.678;9.856;2023-08-20T08:18:32;8.20;;;4.75;;
52838;SDS011;39219;53.678;9.856;2023-08-20T08:20:59;7.65;;;4.10;;
52838;SDS011;39219;53.678;9.856;2023-08-20T08:23:26;9.93;;;4.40;;
52838;SDS011;39219;53.678;9.856;2023-08-20T08:25:52;8.55;;;4.40;;
52838;SDS011;39219;53.678;9.856;2023-08-20T08:28:19;9.68;;;4.65;;
52838;SDS011;39219;53.678;9.856;2023-08-20T08:30:45;10.07;;;4.47;;
52838;SDS011;39219;53.678;9.856;2023-08-20T08:33:11;10.20;;;4.47;;
52838;SDS011;39219;53.678;9.856;2023-08-20T08:35:37;7.78;;;3.63;;
52838;SDS011;39219;53.678;9.856;2023-08-20T08:38:05;6.50;;;3.65;;
52838;SDS011;39219;53.678;9.856;2023-08-20T08:40:31;7.13;;;3.80;;
52838;SDS011;39219;53.678;9.856;2023-08-20T08:42:58;8.95;;;4.10;;
52838;SDS011;39219;53.678;9.856;2023-08-20T08:45:25;8.10;;;3.70;;
52838;SDS011;39219;53.678;9.856;2023-08-20T08:47:52;7.82;;;4.03;;
52838;SDS011;39219;53.678;9.856;2023-08-20T08:50:20;7.40;;;3.90;;
52838;SDS011;39219;53.678;9.856;2023-08-20T08:52:46;9.38;;;3.35;;
52838;SDS011;39219;53.678;9.856;2023-08-20T08:55:14;7.72;;;3.28;;
52838;SDS011;39219;53.678;9.856;2023-08-20T08:57:41;9.02;;;3.25;;
52838;SDS011;39219;53.678;9.856;2023-08-20T09:00:07;7.38;;;3.22;;
52838;SDS011;39219;53.678;9.856;2023-08-20T09:02:34;8.07;;;2.97;;
52838;SDS011;39219;53.678;9.856;2023-08-20T09:05:02;7.55;;;2.85;;
52838;SDS011;39219;53.678;9.856;2023-08-20T09:07:28;9.80;;;3.40;;
52838;SDS011;39219;53.678;9.856;2023-08-20T09:09:57;7.63;;;3.10;;
52838;SDS011;39219;53.678;9.856;2023-08-20T09:12:25;7.40;;;2.70;;
52838;SDS011;39219;53.678;9.856;2023-08-20T09:14:52;6.25;;;2.92;;
52838;SDS011;39219;53.678;9.856;2023-08-20T09:17:19;7.68;;;2.85;;
52838;SDS011;39219;53.678;9.856;2023-08-20T09:19:46;6.28;;;2.53;;
52838;SDS011;39219;53.678;9.856;2023-08-20T09:22:12;8.00;;;2.80;;
52838;SDS011;39219;53.678;9.856;2023-08-20T09:24:39;5.68;;;2.65;;
52838;SDS011;39219;53.678;9.856;2023-08-20T09:27:07;6.72;;;2.53;;
52838;SDS011;39219;53.678;9.856;2023-08-20T09:29:34;10.30;;;2.95;;
52838;SDS011;39219;53.678;9.856;2023-08-20T09:32:09;5.38;;;2.47;;
52838;SDS011;39219;53.678;9.856;2023-08-20T09:34:39;5.97;;;2.30;;
52838;SDS011;39219;53.678;9.856;2023-08-20T09:37:07;6.25;;;2.50;;
52838;SDS011;39219;53.678;9.856;2023-08-20T09:39:34;8.63;;;2.80;;
52838;SDS011;39219;53.678;9.856;2023-08-20T09:42:00;7.88;;;2.67;;
52838;SDS011;39219;53.678;9.856;2023-08-20T09:44:27;11.32;;;2.72;;
52838;SDS011;39219;53.678;9.856;2023-08-20T09:46:56;6.20;;;2.78;;
52838;SDS011;39219;53.678;9.856;2023-08-20T09:49:23;5.15;;;2.30;;
52838;SDS011;39219;53.678;9.856;2023-08-20T09:51:51;7.35;;;3.10;;
52838;SDS011;39219;53.678;9.856;2023-08-20T09:54:19;6.10;;;2.80;;
52838;SDS011;39219;53.678;9.856;2023-08-20T09:56:49;8.50;;;2.80;;
52838;SDS011;39219;53.678;9.856;2023-08-20T09:59:17;7.85;;;3.10;;
52838;SDS011;39219;53.678;9.856;2023-08-20T10:01:43;5.85;;;2.95;;
52838;SDS011;39219;53.678;9.856;2023-08-20T10:04:14;8.32;;;2.70;;
52838;SDS011;39219;53.678;9.856;2023-08-20T10:06:40;7.45;;;3.20;;
52838;SDS011;39219;53.678;9.856;2023-08-20T10:09:07;9.25;;;3.00;;
52838;SDS011;39219;53.678;9.856;2023-08-20T10:11:34;8.18;;;2.95;;
52838;SDS011;39219;53.678;9.856;2023-08-20T10:14:02;6.10;;;2.83;;
52838;SDS011;39219;53.678;9.856;2023-08-20T10:16:28;5.47;;;2.55;;
52838;SDS011;39219;53.678;9.856;2023-08-20T10:18:55;7.18;;;2.80;;
52838;SDS011;39219;53.678;9.856;2023-08-20T10:21:25;8.02;;;2.72;;
52838;SDS011;39219;53.678;9.856;2023-08-20T10:23:52;5.38;;;2.40;;
52838;SDS011;39219;53.678;9.856;2023-08-20T10:26:19;5.75;;;2.50;;
52838;SDS011;39219;53.678;9.856;2023-08-20T10:28:46;6.32;;;2.50;;
52838;SDS011;39219;53.678;9.856;2023-08-20T10:31:13;8.00;;;2.80;;
52838;SDS011;39219;53.678;9.856;2023-08-20T10:33:53;6.35;;;2.60;;
52838;SDS011;39219;53.678;9.856;2023-08-20T10:36:20;6.57;;;2.70;;
52838;SDS011;39219;53.678;9.856;2023-08-20T10:38:47;6.75;;;2.90;;
52838;SDS011;39219;53.678;9.856;2023-08-20T10:41:14;6.00;;;2.35;;
52838;SDS011;39219;53.678;9.856;2023-08-20T10:43:46;4.45;;;2.50;;
52838;SDS011;39219;53.678;9.856;2023-08-20T10:46:16;5.47;;;2.60;;
52838;SDS011;39219;53.678;9.856;2023-08-20T10:48:42;8.55;;;2.53;;
52838;SDS011;39219;53.678;9.856;2023-08-20T10:51:11;7.35;;;2.85;;
52838;SDS011;39219;53.678;9.856;2023-08-20T10:53:38;6.88;;;2.38;;
52838;SDS011;39219;53.678;9.856;2023-08-20T10:56:11;8.05;;;2.78;;
52838;SDS011;39219;53.678;9.856;2023-08-20T10:58:38;5.88;;;2.60;;
52838;SDS011;39219;53.678;9.856;2023-08-20T11:01:14;5.60;;;2.30;;
52838;SDS011;39219;53.678;9.856;2023-08-20T11:03:41;6.85;;;2.35;;
52838;SDS011;39219;53.678;9.856;2023-08-20T11:06:08;6.72;;;2.60;;
52838;SDS011;39219;53.678;9.856;2023-08-20T11:08:36;6.18;;;2.30;;
52838;SDS011;39219;53.678;9.856;2023-08-20T11:11:03;7.45;;;2.70;;
52838;SDS011;39219;53.678;9.856;2023-08-20T11:13:29;8.18;;;2.40;;
52838;SDS011;39219;53.678;9.856;2023-08-20T11:15:56;7.22;;;2.40;;
52838;SDS011;39219;53.678;9.856;2023-08-20T11:18:22;8.02;;;2.45;;
52838;SDS011;39219;53.678;9.856;2023-08-20T11:20:50;7.13;;;2.42;;
52838;SDS011;39219;53.678;9.856;2023-08-20T11:23:16;6.70;;;2.50;;
52838;SDS011;39219;53.678;9.856;2023-08-20T11:25:44;5.85;;;2.38;;
52838;SDS011;39219;53.678;9.856;2023-08-20T11:28:10;7.85;;;2.90;;
52838;SDS011;39219;53.678;9.856;2023-08-20T11:30:38;5.40;;;2.10;;
52838;SDS011;39219;53.678;9.856;2023-08-20T11:33:04;6.28;;;2.45;;
52838;SDS011;39219;53.678;9.856;2023-08-20T11:35:31;5.82;;;2.45;;
52838;SDS011;39219;53.678;9.856;2023-08-20T11:37:58;5.97;;;2.33;;
52838;SDS011;39219;53.678;9.856;2023-08-20T11:40:25;5.63;;;2.20;;
52838;SDS011;39219;53.678;9.856;2023-08-20T11:42:52;6.28;;;2.47;;
52838;SDS011;39219;53.678;9.856;2023-08-20T11:45:19;7.22;;;2.20;;
52838;SDS011;39219;53.678;9.856;2023-08-20T11:47:45;6.03;;;2.05;;
52838;SDS011;39219;53.678;9.856;2023-08-20T11:50:11;6.18;;;2.50;;
52838;SDS011;39219;53.678;9.856;2023-08-20T11:52:38;6.65;;;2.28;;
52838;SDS011;39219;53.678;9.856;2023-08-20T11:55:05;4.28;;;2.10;;
52838;SDS011;39219;53.678;9.856;2023-08-20T11:57:31;5.03;;;2.10;;
52838;SDS011;39219;53.678;9.856;2023-08-20T12:00:01;6.18;;;2.40;;
52838;SDS011;39219;53.678;9.856;2023-08-20T12:02:30;3.53;;;2.10;;
52838;SDS011;39219;53.678;9.856;2023-08-20T12:04:56;5.78;;;2.10;;
52838;SDS011;39219;53.678;9.856;2023-08-20T12:07:25;6.53;;;2.30;;
52838;SDS011;39219;53.678;9.856;2023-08-20T12:09:51;6.53;;;2.40;;
52838;SDS011;39219;53.678;9.856;2023-08-20T12:12:18;6.35;;;2.30;;
52838;SDS011;39219;53.678;9.856;2023-08-20T12:14:45;9.07;;;2.65;;
52838;SDS011;39219;53.678;9.856;2023-08-20T12:17:16;6.20;;;2.38;;
52838;SDS011;39219;53.678;9.856;2023-08-20T12:19:42;5.97;;;2.00;;
52838;SDS011;39219;53.678;9.856;2023-08-20T12:22:08;6.45;;;2.60;;
52838;SDS011;39219;53.678;9.856;2023-08-20T12:24:35;5.55;;;2.50;;
52838;SDS011;39219;53.678;9.856;2023-08-20T12:27:01;5.43;;;2.20;;
52838;SDS011;39219;53.678;9.856;2023-08-20T12:29:28;5.53;;;2.30;;
52838;SDS011;39219;53.678;9.856;2023-08-20T12:31:55;7.05;;;2.35;;
52838;SDS011;39219;53.678;9.856;2023-08-20T12:34:22;5.43;;;2.00;;
52838;SDS011;39219;53.678;9.856;2023-08-20T12:36:49;5.22;;;2.03;;
52838;SDS011;39219;53.678;9.856;2023-08-20T12:39:15;5.88;;;2.10;;
52838;SDS011;39219;53.678;9.856;2023-08-20T12:41:41;5.72;;;2.00;;
52838;SDS011;39219;53.678;9.856;2023-08-20T12:44:08;6.18;;;2.10;;
52838;SDS011;39219;53.678;9.856;2023-08-20T12:46:34;7.80;;;2.10;;
52838;SDS011;39219;53.678;9.856;2023-08-20T12:49:00;4.13;;;1.88;;
52838;SDS011;39219;53.678;9.856;2023-08-20T12:51:28;5.32;;;1.85;;
52838;SDS011;39219;53.678;9.856;2023-08-20T12:53:54;4.35;;;1.58;;
52838;SDS011;39219;53.678;9.856;2023-08-20T12:56:20;4.40;;;1.65;;
52838;SDS011;39219;53.678;9.856;2023-08-20T12:58:47;5.88;;;2.05;;
52838;SDS011;39219;53.678;9.856;2023-08-20T13:01:13;2.92;;;1.60;;
52838;SDS011;39219;53.678;9.856;2023-08-20T13:03:39;4.57;;;1.77;;
52838;SDS011;39219;53.678;9.856;2023-08-20T13:06:06;4.55;;;1.90;;
52838;SDS011;39219;53.678;9.856;2023-08-20T13:08:34;5.55;;;1.85;;
52838;SDS011;39219;53.678;9.856;2023-08-20T13:11:01;5.18;;;1.80;;
52838;SDS011;39219;53.678;9.856;2023-08-20T13:13:29;4.53;;;1.80;;
52838;SDS011;39219;53.678;9.856;2023-08-20T13:15:58;5.28;;;2.05;;
52838;SDS011;39219;53.678;9.856;2023-08-20T13:18:25;6.10;;;1.98;;
52838;SDS011;39219;53.678;9.856;2023-08-20T13:20:51;5.18;;;2.13;;
52838;SDS011;39219;53.678;9.856;2023-08-20T13:23:18;5.25;;;1.80;;
52838;SDS011;39219;53.678;9.856;2023-08-20T13:25:46;4.55;;;1.77;;
52838;SDS011;39219;53.678;9.856;2023-08-20T13:28:12;4.30;;;1.65;;
52838;SDS011;39219;53.678;9.856;2023-08-20T13:30:38;5.85;;;1.75;;
52838;SDS011;39219;53.678;9.856;2023-08-20T13:33:05;4.75;;;1.60;;
52838;SDS011;39219;53.678;9.856;2023-08-20T13:35:32;3.90;;;1.60;;
52838;SDS011;39219;53.678;9.856;2023-08-20T13:37:58;4.68;;;1.63;;
52838;SDS011;39219;53.678;9.856;2023-08-20T13:40:25;4.47;;;1.52;;
52838;SDS011;39219;53.678;9.856;2023-08-20T13:42:52;3.17;;;1.50;;
52838;SDS011;39219;53.678;9.856;2023-08-20T13:45:19;4.70;;;1.60;;
52838;SDS011;39219;53.678;9.856;2023-08-20T13:47:45;5.45;;;1.80;;
52838;SDS011;39219;53.678;9.856;2023-08-20T13:50:11;3.50;;;1.80;;
52838;SDS011;39219;53.678;9.856;2023-08-20T13:52:38;3.42;;;1.52;;
52838;SDS011;39219;53.678;9.856;2023-08-20T13:55:04;3.67;;;1.38;;
52838;SDS011;39219;53.678;9.856;2023-08-20T13:57:31;4.63;;;1.60;;
52838;SDS011;39219;53.678;9.856;2023-08-20T13:59:59;3.25;;;1.40;;
52838;SDS011;39219;53.678;9.856;2023-08-20T14:02:25;3.42;;;1.55;;
52838;SDS011;39219;53.678;9.856;2023-08-20T14:04:52;3.40;;;1.58;;
52838;SDS011;39219;53.678;9.856;2023-08-20T14:07:18;3.58;;;1.50;;
52838;SDS011;39219;53.678;9.856;2023-08-20T14:09:44;4.32;;;1.42;;
52838;SDS011;39219;53.678;9.856;2023-08-20T14:12:10;3.72;;;1.45;;
52838;SDS011;39219;53.678;9.856;2023-08-20T14:14:37;4.10;;;1.38;;
52838;SDS011;39219;53.678;9.856;2023-08-20T14:17:04;4.18;;;1.50;;
52838;SDS011;39219;53.678;9.856;2023-08-20T14:19:31;4.00;;;1.60;;
52838;SDS011;39219;53.678;9.856;2023-08-20T14:21:57;3.05;;;1.17;;
52838;SDS011;39219;53.678;9.856;2023-08-20T14:24:23;3.00;;;1.23;;
52838;SDS011;39219;53.678;9.856;2023-08-20T14:26:50;4.55;;;1.33;;
52838;SDS011;39219;53.678;9.856;2023-08-20T14:29:16;3.83;;;1.30;;
52838;SDS011;39219;53.678;9.856;2023-08-20T14:31:42;3.45;;;1.55;;
52838;SDS011;39219;53.678;9.856;2023-08-20T14:34:10;5.30;;;1.50;;
52838;SDS011;39219;53.678;9.856;2023-08-20T14:36:36;4.35;;;1.80;;
52838;SDS011;39219;53.678;9.856;2023-08-20T14:39:05;6.88;;;1.80;;